createdAt,value
2022-11-08T00:27:23.419Z,90.64
2022-11-08T00:38:30.243Z,90.67
2022-11-08T00:45:15.215Z,92.57
2022-11-08T01:01:27.358Z,94.20
2022-11-08T01:12:44.578Z,93.76
2022-11-08T01:32:21.270Z,94.46
2022-11-08T02:05:44.647Z,96.57
2022-11-08T02:08:27.229Z,96.61
2022-11-08T02:10:54.358Z,96.93
2022-11-08T02:13:24.434Z,97.54
2022-11-08T02:15:52.001Z,96.79
2022-11-08T02:27:59.175Z,95.73
2022-11-08T02:38:57.771Z,95.56
2022-11-08T02:51:21.673Z,96.23
2022-11-08T03:02:38.636Z,95.56
2022-11-08T03:05:06.066Z,96.27
2022-11-08T03:07:33.252Z,96.54
2022-11-08T03:14:12.431Z,95.85
2022-11-08T03:16:39.591Z,96.10
2022-11-08T03:19:06.689Z,95.98
2022-11-08T03:21:36.275Z,96.34
2022-11-08T03:24:04.541Z,97.01
2022-11-08T03:26:32.494Z,96.75
2022-11-08T03:28:59.620Z,96.36
2022-11-08T04:05:47.455Z,96.88
2022-11-08T04:08:14.751Z,96.95
2022-11-08T04:10:42.534Z,96.94
2022-11-08T04:13:28.471Z,96.75
2022-11-08T04:15:56.141Z,97.24
2022-11-08T04:18:41.828Z,97.77
2022-11-08T04:29:47.621Z,96.34
2022-11-08T04:41:05.676Z,96.40
2022-11-08T04:43:33.499Z,97.89
2022-11-08T04:46:11.497Z,97.32
2022-11-08T04:48:38.830Z,97.40
2022-11-08T04:51:11.300Z,97.05
2022-11-08T04:53:38.588Z,97.17
2022-11-08T04:56:08.275Z,96.86
2022-11-08T05:50:22.596Z,97.74
2022-11-08T06:06:07.415Z,99.71
2022-11-08T06:30:19.978Z,99.66
2022-11-08T06:50:34.480Z,100.00
2022-11-08T06:53:06.373Z,100.00
2022-11-08T06:55:34.859Z,100.00
2022-11-08T06:58:02.724Z,100.00
2022-11-08T07:00:29.924Z,100.00
2022-11-08T07:02:59.105Z,100.00
2022-11-08T07:05:27.034Z,100.00
2022-11-08T07:07:54.529Z,100.00
2022-11-08T07:10:23.639Z,100.00
2022-11-08T07:12:58.864Z,100.00
2022-11-08T07:15:25.982Z,100.00
2022-11-08T07:17:53.117Z,100.00
2022-11-08T07:20:22.210Z,100.00
2022-11-08T07:22:49.355Z,100.00
2022-11-08T07:25:16.482Z,100.00
2022-11-08T07:27:43.579Z,100.00
2022-11-08T07:30:11.307Z,100.00
2022-11-08T07:32:38.410Z,100.00
2022-11-08T07:35:06.000Z,100.00
2022-11-08T07:37:33.364Z,100.00
2022-11-08T07:40:00.467Z,100.00
2022-11-08T07:42:34.286Z,100.00
2022-11-08T07:45:11.439Z,100.00
2022-11-08T07:47:38.863Z,100.00
2022-11-08T07:50:06.361Z,100.00
2022-11-08T07:52:33.503Z,100.00
2022-11-08T07:55:00.606Z,100.00
2022-11-08T07:57:27.720Z,100.00
2022-11-08T07:59:54.869Z,100.00
2022-11-08T08:02:22.116Z,100.00
2022-11-08T08:04:49.225Z,100.00
2022-11-08T08:07:16.574Z,100.00
2022-11-08T08:09:43.702Z,100.00
2022-11-08T08:12:10.878Z,100.00
2022-11-08T08:14:37.972Z,100.00
2022-11-08T08:17:05.161Z,100.00
2022-11-08T08:19:32.268Z,99.99
2022-11-08T08:21:59.403Z,99.94
2022-11-08T08:24:26.637Z,99.66
2022-11-08T08:26:54.165Z,98.93
2022-11-08T08:29:21.261Z,99.01
2022-11-08T08:31:48.520Z,98.98
2022-11-08T08:34:15.781Z,98.94
2022-11-08T08:36:42.974Z,98.52
2022-11-08T08:39:10.195Z,98.44
2022-11-08T08:41:37.326Z,98.10
2022-11-08T08:44:04.596Z,98.02
2022-11-08T08:46:31.726Z,97.47
2022-11-08T08:48:58.860Z,97.40
2022-11-08T08:51:25.986Z,97.20
2022-11-08T08:53:53.078Z,96.54
2022-11-08T08:56:20.210Z,96.28
2022-11-08T09:04:08.334Z,95.01
2022-11-08T09:06:35.509Z,94.21
2022-11-08T09:09:02.791Z,94.42
2022-11-08T09:11:30.161Z,94.19
2022-11-08T09:13:57.320Z,94.13
2022-11-08T09:16:24.440Z,93.76
2022-11-08T09:18:51.680Z,93.37
2022-11-08T09:21:18.932Z,92.93
2022-11-08T09:23:46.147Z,92.81
2022-11-08T09:26:13.298Z,91.23
2022-11-08T09:28:40.413Z,91.11
2022-11-08T09:31:09.281Z,90.95
2022-11-08T09:33:37.375Z,90.87
2022-11-08T09:36:05.725Z,91.06
2022-11-08T09:38:33.111Z,90.69
2022-11-08T09:41:29.396Z,89.26
2022-11-08T09:44:11.179Z,88.97
2022-11-08T09:46:54.701Z,88.69
2022-11-08T09:49:25.906Z,88.44
2022-11-08T09:51:53.367Z,88.81
2022-11-08T09:54:31.312Z,87.99
2022-11-08T09:56:58.458Z,87.64
2022-11-08T09:59:35.304Z,86.87
2022-11-08T10:02:02.699Z,86.29
2022-11-08T10:04:32.189Z,86.38
2022-11-08T10:07:11.319Z,85.98
2022-11-08T10:10:00.471Z,85.69
2022-11-08T10:12:33.409Z,84.00
2022-11-08T10:15:22.158Z,84.71
2022-11-08T10:18:14.512Z,84.61
2022-11-08T10:20:56.886Z,83.91
2022-11-08T10:23:45.260Z,82.75
2022-11-08T10:26:16.533Z,83.19
2022-11-08T10:28:50.178Z,82.30
2022-11-08T10:31:19.464Z,81.67
2022-11-08T10:33:52.280Z,82.40
2022-11-08T10:36:32.955Z,81.33
2022-11-08T10:39:08.953Z,80.80
2022-11-08T10:41:45.127Z,79.51
2022-11-08T10:44:17.619Z,78.47
2022-11-08T10:46:46.766Z,78.28
2022-11-08T10:49:19.623Z,77.11
2022-11-08T10:51:48.836Z,76.11
2022-11-08T10:54:48.026Z,75.98
2022-11-08T10:57:17.809Z,75.56
2022-11-08T10:59:45.627Z,75.05
2022-11-08T11:02:37.824Z,75.26
2022-11-08T11:05:17.934Z,74.19
2022-11-08T11:08:02.023Z,74.17
2022-11-08T11:10:32.769Z,73.40
2022-11-08T11:13:23.929Z,73.57
2022-11-08T11:15:57.378Z,72.26
2022-11-08T11:18:46.408Z,70.33
2022-11-08T11:21:18.045Z,69.65
2022-11-08T11:23:55.905Z,69.46
2022-11-08T11:26:30.853Z,68.70
2022-11-08T11:29:03.934Z,68.13
2022-11-08T11:31:36.533Z,67.92
2022-11-08T11:34:18.556Z,66.05
2022-11-08T11:37:06.355Z,65.66
2022-11-08T11:39:54.694Z,64.30
2022-11-08T11:42:49.389Z,61.80
2022-11-08T11:45:24.192Z,59.67
2022-11-08T11:47:53.467Z,59.95
2022-11-08T11:50:38.339Z,58.62
2022-11-08T11:53:12.366Z,57.26
2022-11-08T11:56:03.634Z,57.56
2022-11-08T11:59:05.009Z,55.38
2022-11-08T12:01:50.787Z,56.15
2022-11-08T12:04:24.681Z,55.55
2022-11-08T12:07:11.887Z,55.38
2022-11-08T12:10:11.337Z,52.67
2022-11-08T12:13:27.754Z,53.37
2022-11-08T12:16:25.432Z,53.23
2022-11-08T12:19:19.444Z,53.45
2022-11-08T12:22:01.464Z,52.68
2022-11-08T12:24:56.330Z,52.91
2022-11-08T12:27:30.302Z,50.64
2022-11-08T12:30:17.238Z,51.09
2022-11-08T12:33:12.141Z,51.16
2022-11-08T12:35:45.571Z,50.44
2022-11-08T12:38:24.620Z,50.75
2022-11-08T12:41:11.752Z,50.66
2022-11-08T12:43:54.061Z,52.00
2022-11-08T12:46:21.400Z,51.88
2022-11-08T12:49:01.450Z,50.45
2022-11-08T12:51:45.573Z,48.44
2022-11-08T12:54:26.234Z,47.34
2022-11-08T12:56:55.701Z,47.63
2022-11-08T12:59:51.359Z,47.87
2022-11-08T13:02:24.529Z,47.35
2022-11-08T13:05:09.210Z,47.50
2022-11-08T13:07:44.770Z,45.92
2022-11-08T13:10:17.124Z,45.63
2022-11-08T13:12:55.463Z,45.97
2022-11-08T13:15:28.505Z,45.16
2022-11-08T13:18:07.417Z,46.24
2022-11-08T13:20:46.765Z,45.00
2022-11-08T13:23:15.966Z,45.81
2022-11-08T13:25:43.994Z,49.62
2022-11-08T13:28:42.919Z,49.31
2022-11-08T13:31:42.174Z,51.34
2022-11-08T13:34:28.432Z,50.47
2022-11-08T13:37:04.461Z,49.98
2022-11-08T13:39:49.287Z,51.37
2022-11-08T13:42:16.235Z,52.10
2022-11-08T13:44:55.207Z,52.35
2022-11-08T13:47:34.904Z,53.41
2022-11-08T13:50:31.324Z,53.43
2022-11-08T13:53:03.019Z,53.30
2022-11-08T13:55:42.343Z,54.73
2022-11-08T13:58:34.131Z,54.89
2022-11-08T14:01:21.150Z,55.23
2022-11-08T14:03:48.283Z,55.60
2022-11-08T14:06:38.439Z,56.56
2022-11-08T14:09:40.778Z,56.93
2022-11-08T14:12:23.093Z,57.66
2022-11-08T14:15:07.282Z,57.16
2022-11-08T14:17:54.605Z,57.00
2022-11-08T14:20:41.026Z,57.29
2022-11-08T14:23:20.848Z,57.11
2022-11-08T14:25:53.701Z,57.26
2022-11-08T14:28:42.859Z,56.63
2022-11-08T14:31:34.429Z,57.02
2022-11-08T14:34:01.814Z,57.13
2022-11-08T14:36:30.547Z,57.63
2022-11-08T14:39:05.864Z,57.46
2022-11-08T14:41:33.557Z,58.37
2022-11-08T14:44:01.978Z,58.45
2022-11-08T14:51:13.193Z,59.91
2022-11-08T15:02:26.212Z,62.14
2022-11-08T15:04:53.580Z,62.01
2022-11-08T15:07:21.577Z,62.36
2022-11-08T15:09:49.032Z,62.74
2022-11-08T15:12:19.089Z,63.07
2022-11-08T15:14:57.575Z,63.48
2022-11-08T15:18:07.826Z,63.86
2022-11-08T15:20:34.990Z,64.03
2022-11-08T15:23:02.110Z,64.04
2022-11-08T15:25:35.344Z,64.41
2022-11-08T17:47:38.236Z,76.83
2022-11-08T19:09:34.358Z,74.01
2022-11-08T19:12:05.741Z,73.60
2022-11-08T19:36:43.394Z,73.93
2022-11-08T19:43:28.120Z,73.83
2022-11-08T19:46:20.524Z,73.70
2022-11-08T19:48:48.715Z,73.97
